KCHS

Charleston AFB / Intl Airport

Charleston, South Carolina, USA
METAR KCHS 121856Z 28006KT 10SM FEW070 SCT150 BKN250 13/M04 A3019 RMK AO2 SLP222 T01331039
Observed Flight Rules
Dec-12 @ 18:56 UTC (42 minutes ago) Visual Flight Rules
Wind Visibility Clouds
280° at 6 knots 10 miles
  • Few at 7,000' AGL
  • Scattered at 15,000' AGL
  • Broken at 25,000' AGL
Temperatures Readings
Current 13°C / 55°F
Dewpoint -4°C / 25°F
Humidity 31%
Altimeter 30.19" Hg
Pressure 1022.2 hPa
Elevation 13
METAR KCHS 121856Z 28006KT 10SM FEW070 SCT150 BKN250 13/M04 A3019 RMK AO2 SLP222 T01331039
Observed Flight Rules
Dec-12 @ 18:56 UTC
(42 minutes ago)
VFR
Wind Visibility
280° at 6 knots 10 miles
Clouds
  • Few at 7,000' AGL
  • Scattered at 15,000' AGL
  • Broken at 25,000' AGL
Temperature Dewpoint
13°C / 55°F -4°C / 25°F
Humidity Altimeter Pressure
31% 30.19" Hg 1022.2 hPa